createdAt,value
2019-04-29T00:00:51.445Z,74.94
2019-04-29T00:01:51.381Z,74.73
2019-04-29T00:02:51.373Z,74.94
2019-04-29T00:03:51.368Z,75.04
2019-04-29T00:04:51.349Z,75.24
2019-04-29T00:05:51.336Z,74.69
2019-04-29T00:06:51.325Z,75.14
2019-04-29T00:07:51.313Z,75.35
2019-04-29T00:08:51.305Z,75.24
2019-04-29T00:09:51.309Z,75.14
2019-04-29T00:10:51.275Z,75.35
2019-04-29T00:11:51.272Z,75.69
2019-04-29T00:12:51.268Z,75.59
2019-04-29T00:13:51.243Z,75.55
2019-04-29T00:14:51.241Z,75.55
2019-04-29T00:15:51.257Z,75.24
2019-04-29T00:16:51.209Z,75.24
2019-04-29T00:17:51.199Z,75.24
2019-04-29T00:18:51.183Z,75.24
2019-04-29T00:19:51.183Z,74.94
2019-04-29T00:20:51.188Z,75.14
2019-04-29T00:21:51.153Z,75.14
2019-04-29T00:22:51.142Z,75.14
2019-04-29T00:24:03.256Z,75.04
2019-04-29T00:24:52.140Z,74.73
2019-04-29T00:25:51.116Z,75.04
2019-04-29T00:26:51.119Z,75.24
2019-04-29T00:27:51.091Z,75.14
2019-04-29T00:28:51.087Z,75.48
2019-04-29T00:29:51.061Z,75.79
2019-04-29T00:30:51.056Z,75.99
2019-04-29T00:31:51.053Z,76.51
2019-04-29T00:32:51.039Z,76.81
2019-04-29T00:33:51.043Z,76.61
2019-04-29T00:34:51.005Z,76.40
2019-04-29T00:35:50.993Z,76.51
2019-04-29T00:36:50.986Z,76.61
2019-04-29T00:37:50.987Z,76.68
2019-04-29T00:38:50.979Z,76.78
2019-04-29T00:39:50.952Z,76.68
2019-04-29T00:40:50.943Z,75.76
2019-04-29T00:41:50.933Z,75.55
2019-04-29T00:42:50.925Z,75.86
2019-04-29T00:43:50.926Z,75.65
2019-04-29T00:44:50.901Z,75.14
2019-04-29T00:45:50.884Z,75.14
2019-04-29T00:46:50.866Z,75.01
2019-04-29T00:47:50.867Z,75.04
2019-04-29T00:48:50.864Z,75.01
2019-04-29T00:49:50.850Z,74.94
2019-04-29T00:50:50.831Z,75.35
2019-04-29T00:51:50.818Z,75.52
2019-04-29T00:52:50.808Z,75.21
2019-04-29T00:53:50.799Z,75.10
2019-04-29T00:54:50.807Z,75.42
2019-04-29T00:55:50.786Z,75.52
2019-04-29T00:56:50.771Z,75.10
2019-04-29T00:57:50.749Z,75.04
2019-04-29T00:58:50.737Z,75.35
2019-04-29T00:59:50.741Z,76.34
2019-04-29T01:00:50.797Z,75.86
2019-04-29T01:01:50.710Z,76.68
2019-04-29T01:02:50.692Z,76.34
2019-04-29T01:03:50.680Z,76.37
2019-04-29T01:04:50.676Z,76.43
2019-04-29T01:05:50.681Z,75.65
2019-04-29T01:06:50.645Z,76.34
2019-04-29T01:07:50.638Z,76.03
2019-04-29T01:08:50.630Z,75.52
2019-04-29T01:09:50.620Z,76.27
2019-04-29T01:10:50.617Z,76.43
2019-04-29T01:11:50.618Z,76.43
2019-04-29T01:12:50.583Z,76.54
2019-04-29T01:13:50.564Z,76.84
2019-04-29T01:14:50.555Z,76.57
2019-04-29T01:15:50.605Z,77.29
2019-04-29T01:16:50.544Z,78.11
2019-04-29T01:17:50.550Z,77.05
2019-04-29T01:18:50.518Z,77.09
2019-04-29T01:19:50.502Z,77.19
2019-04-29T01:20:50.492Z,77.50
2019-04-29T01:21:50.481Z,77.39
2019-04-29T01:22:50.489Z,78.21
2019-04-29T01:23:50.454Z,78.11
2019-04-29T01:24:50.454Z,77.60
2019-04-29T01:25:50.436Z,78.25
2019-04-29T01:26:50.434Z,78.63
2019-04-29T01:27:50.418Z,78.76
2019-04-29T01:28:50.424Z,78.86
2019-04-29T01:29:50.396Z,78.97
2019-04-29T01:30:50.375Z,79.38
2019-04-29T01:31:50.370Z,78.97
2019-04-29T01:32:50.360Z,79.27
2019-04-29T01:33:50.360Z,79.27
2019-04-29T01:34:50.358Z,79.48
2019-04-29T01:35:50.326Z,79.38
2019-04-29T01:36:50.312Z,80.19
2019-04-29T01:37:50.301Z,80.09
2019-04-29T01:38:50.300Z,80.30
2019-04-29T01:39:50.292Z,80.13
2019-04-29T01:40:50.272Z,80.64
2019-04-29T01:41:50.267Z,81.84
2019-04-29T01:42:50.248Z,81.52
2019-04-29T01:43:50.232Z,80.51
2019-04-29T01:44:50.237Z,80.71
2019-04-29T01:45:50.226Z,80.81
2019-04-29T01:46:50.253Z,80.60
2019-04-29T01:47:50.221Z,80.60
2019-04-29T01:48:50.182Z,80.81
2019-04-29T01:49:50.171Z,80.74
2019-04-29T01:50:50.168Z,80.71
2019-04-29T01:51:50.144Z,80.71
2019-04-29T01:52:50.132Z,81.43
2019-04-29T01:53:50.119Z,80.71
2019-04-29T01:54:50.112Z,81.57
2019-04-29T01:55:50.107Z,82.14
2019-04-29T01:56:50.096Z,81.57
2019-04-29T01:57:50.098Z,81.36
2019-04-29T01:58:50.068Z,82.04
2019-04-29T01:59:50.052Z,81.98
2019-04-29T02:00:50.049Z,83.37
2019-04-29T02:01:50.048Z,81.46
2019-04-29T02:02:50.030Z,81.46
2019-04-29T02:03:50.007Z,81.87
2019-04-29T02:04:50.072Z,81.77
2019-04-29T02:05:50.004Z,82.04
2019-04-29T02:06:50.057Z,82.14
2019-04-29T02:07:49.973Z,81.98
2019-04-29T02:08:49.959Z,82.86
2019-04-29T02:09:49.950Z,82.49
2019-04-29T02:10:49.928Z,81.98
2019-04-29T02:11:49.943Z,82.04
2019-04-29T02:12:49.921Z,83.58
2019-04-29T02:13:49.894Z,82.08
2019-04-29T02:14:49.889Z,83.47
2019-04-29T02:15:49.878Z,83.41
2019-04-29T02:16:49.860Z,82.79
2019-04-29T02:17:49.854Z,82.69
2019-04-29T02:18:49.860Z,83.20
2019-04-29T02:19:49.849Z,82.96
2019-04-29T02:20:49.818Z,81.94
2019-04-29T02:21:49.808Z,83.00
2019-04-29T02:22:49.806Z,82.55
2019-04-29T02:23:49.795Z,83.10
2019-04-29T02:24:49.782Z,83.00
2019-04-29T02:25:49.764Z,83.51
2019-04-29T02:26:49.756Z,83.61
2019-04-29T02:27:49.746Z,83.10
2019-04-29T02:28:49.732Z,83.55
2019-04-29T02:29:49.738Z,84.27
2019-04-29T02:30:49.708Z,84.44
2019-04-29T02:31:49.693Z,84.27
2019-04-29T02:32:49.681Z,84.23
2019-04-29T02:33:49.686Z,84.03
2019-04-29T02:34:49.662Z,84.12
2019-04-29T02:35:49.671Z,83.31
2019-04-29T02:36:49.658Z,84.03
2019-04-29T02:37:49.650Z,84.03
2019-04-29T02:38:49.623Z,84.12
2019-04-29T02:39:49.620Z,85.36
2019-04-29T02:40:49.605Z,83.31
2019-04-29T02:41:49.594Z,83.10
2019-04-29T02:42:49.596Z,83.65
2019-04-29T02:43:49.568Z,83.31
2019-04-29T02:44:49.561Z,83.51
2019-04-29T02:45:49.544Z,84.23
2019-04-29T02:46:49.539Z,83.92
2019-04-29T02:47:49.592Z,83.82
2019-04-29T02:48:49.511Z,83.92
2019-04-29T02:49:49.511Z,84.06
2019-04-29T02:50:49.485Z,84.06
2019-04-29T02:51:49.478Z,84.88
2019-04-29T02:52:49.485Z,84.88
2019-04-29T02:53:49.498Z,85.19
2019-04-29T02:54:49.431Z,85.09
2019-04-29T02:55:49.416Z,85.39
2019-04-29T02:56:49.422Z,84.88
2019-04-29T02:57:49.404Z,84.58
2019-04-29T02:58:49.409Z,84.99
2019-04-29T02:59:49.383Z,85.50
2019-04-29T03:00:49.366Z,85.80
2019-04-29T03:01:49.357Z,86.32
2019-04-29T03:02:49.356Z,85.50
2019-04-29T03:03:49.342Z,85.60
2019-04-29T03:04:49.329Z,84.88
2019-04-29T03:05:49.312Z,85.50
2019-04-29T03:06:49.306Z,85.30
2019-04-29T03:07:49.304Z,85.71
2019-04-29T03:08:49.279Z,85.15
2019-04-29T03:09:49.311Z,85.15
2019-04-29T03:10:49.261Z,85.25
2019-04-29T03:11:49.250Z,84.95
2019-04-29T03:12:49.242Z,84.95
2019-04-29T03:13:49.248Z,85.30
2019-04-29T03:14:49.216Z,85.60
2019-04-29T03:15:49.241Z,85.60
2019-04-29T03:16:49.195Z,85.09
2019-04-29T03:17:49.182Z,85.77
2019-04-29T03:18:49.176Z,85.30
2019-04-29T03:19:49.163Z,85.50
2019-04-29T03:20:49.175Z,85.50
2019-04-29T03:21:49.132Z,86.01
2019-04-29T03:22:49.124Z,86.32
2019-04-29T03:23:49.118Z,86.11
2019-04-29T03:24:49.099Z,85.50
2019-04-29T03:25:49.110Z,85.71
2019-04-29T03:26:49.083Z,85.50
2019-04-29T03:27:49.074Z,86.18
2019-04-29T03:28:49.054Z,86.22
2019-04-29T03:29:49.082Z,86.01
2019-04-29T03:30:49.047Z,85.80
2019-04-29T03:31:49.048Z,87.14
2019-04-29T03:32:49.010Z,86.63
2019-04-29T03:33:49.016Z,86.73
2019-04-29T03:34:48.978Z,87.65
2019-04-29T03:35:49.048Z,87.24
2019-04-29T03:36:48.978Z,87.04
2019-04-29T03:37:48.966Z,86.83
2019-04-29T03:38:48.942Z,87.04
2019-04-29T03:39:48.930Z,86.73
2019-04-29T03:40:48.929Z,87.30
2019-04-29T03:41:48.914Z,87.34
2019-04-29T03:42:48.903Z,86.63
2019-04-29T03:43:48.888Z,86.93
2019-04-29T03:44:48.870Z,86.63
2019-04-29T03:45:48.857Z,87.34
2019-04-29T03:46:48.856Z,86.83
2019-04-29T03:47:48.836Z,87.76
2019-04-29T03:48:48.841Z,86.83
2019-04-29T03:49:48.814Z,87.14
2019-04-29T03:50:48.804Z,87.34
2019-04-29T03:51:48.792Z,87.90
2019-04-29T03:52:48.786Z,87.45
2019-04-29T03:53:48.778Z,87.79
2019-04-29T03:54:48.755Z,88.41
2019-04-29T03:55:48.750Z,87.70
2019-04-29T03:56:48.731Z,88.00
2019-04-29T03:57:48.740Z,87.45
2019-04-29T03:58:48.713Z,87.45
2019-04-29T03:59:48.727Z,88.06
2019-04-29T04:00:48.723Z,87.65
2019-04-29T04:01:48.678Z,87.24
2019-04-29T04:02:48.684Z,87.96
2019-04-29T04:03:48.658Z,87.85
2019-04-29T04:04:48.666Z,87.65
2019-04-29T04:05:48.634Z,87.20
2019-04-29T04:06:48.629Z,87.65
2019-04-29T04:07:48.609Z,86.73
2019-04-29T04:09:04.762Z,87.55
2019-04-29T04:09:49.735Z,87.30
2019-04-29T04:10:48.582Z,87.61
2019-04-29T04:11:48.586Z,86.90
2019-04-29T04:12:48.561Z,86.93
2019-04-29T04:13:48.541Z,87.51
2019-04-29T04:14:48.549Z,87.96
2019-04-29T04:15:48.540Z,87.65
2019-04-29T04:16:48.531Z,88.06
2019-04-29T04:17:48.509Z,87.65
2019-04-29T04:18:48.488Z,87.45
2019-04-29T04:19:48.489Z,87.96
2019-04-29T04:20:48.470Z,87.85
2019-04-29T04:21:48.457Z,87.85
2019-04-29T04:22:48.617Z,88.06
2019-04-29T04:23:48.443Z,89.09
2019-04-29T04:24:48.423Z,88.68
2019-04-29T04:25:48.423Z,88.47
2019-04-29T04:26:48.463Z,88.57
2019-04-29T04:27:48.405Z,88.47
2019-04-29T04:28:48.386Z,88.17
2019-04-29T04:29:48.389Z,88.57
2019-04-29T04:30:48.351Z,87.65
2019-04-29T04:31:48.347Z,87.82
2019-04-29T04:32:48.379Z,87.85
2019-04-29T04:33:48.329Z,88.43
2019-04-29T04:34:48.305Z,88.27
2019-04-29T04:35:48.299Z,88.47
2019-04-29T04:36:48.292Z,88.88
2019-04-29T04:37:48.273Z,88.88
2019-04-29T04:38:48.326Z,88.98
2019-04-29T04:39:48.271Z,88.78
2019-04-29T04:40:48.258Z,89.09
2019-04-29T04:41:48.226Z,88.53
2019-04-29T04:42:48.230Z,87.82
2019-04-29T04:43:48.236Z,88.23
2019-04-29T04:44:48.205Z,88.78
2019-04-29T04:45:48.203Z,88.74
2019-04-29T04:46:48.175Z,89.19
2019-04-29T04:47:48.166Z,88.74
2019-04-29T04:48:48.154Z,88.88
2019-04-29T04:49:48.148Z,88.84
2019-04-29T04:50:48.142Z,89.39
2019-04-29T04:51:48.125Z,89.70
2019-04-29T04:52:48.100Z,89.70
2019-04-29T04:53:48.101Z,90.01
2019-04-29T04:54:48.078Z,89.90
2019-04-29T04:55:48.083Z,89.39
2019-04-29T04:56:48.066Z,89.54
2019-04-29T04:57:48.056Z,89.43
2019-04-29T04:58:48.036Z,89.95
2019-04-29T04:59:48.029Z,89.81
2019-04-29T05:00:48.018Z,89.90
2019-04-29T05:01:48.021Z,90.42
2019-04-29T05:02:48.001Z,89.64
2019-04-29T05:03:47.984Z,89.90
2019-04-29T05:04:47.969Z,90.11
2019-04-29T05:05:47.976Z,90.28
2019-04-29T05:06:47.966Z,90.28
2019-04-29T05:07:47.958Z,90.28
2019-04-29T05:08:48.017Z,88.90
2019-04-29T05:09:47.947Z,88.84
2019-04-29T05:10:47.950Z,88.84
2019-04-29T05:11:47.895Z,88.64
2019-04-29T05:12:47.895Z,88.94
2019-04-29T05:13:47.872Z,88.94
2019-04-29T05:14:47.854Z,88.94
2019-04-29T05:15:47.846Z,88.94
2019-04-29T05:16:47.843Z,88.84
2019-04-29T05:17:47.827Z,88.94
2019-04-29T05:18:47.834Z,89.25
2019-04-29T05:19:47.810Z,88.80
2019-04-29T05:20:47.798Z,88.80
2019-04-29T05:21:47.792Z,90.84
2019-04-29T05:22:47.768Z,88.90
2019-04-29T05:23:47.772Z,89.04
2019-04-29T05:24:47.765Z,89.83
2019-04-29T05:25:47.726Z,88.70
2019-04-29T05:26:47.725Z,88.90
2019-04-29T05:27:47.714Z,89.11
2019-04-29T05:28:47.709Z,88.70
2019-04-29T05:29:47.698Z,88.74
2019-04-29T05:30:47.683Z,89.66
2019-04-29T05:31:47.663Z,89.76
2019-04-29T05:32:47.666Z,89.72
2019-04-29T05:33:47.636Z,88.94
2019-04-29T05:34:48.272Z,88.94
2019-04-29T05:35:47.622Z,89.97
2019-04-29T05:36:47.625Z,89.87
2019-04-29T05:37:47.597Z,89.87
2019-04-29T05:38:47.595Z,89.66
2019-04-29T05:39:47.576Z,90.17
2019-04-29T05:40:47.580Z,89.66
2019-04-29T05:41:47.555Z,89.66
2019-04-29T05:42:48.283Z,89.45
2019-04-29T05:43:47.535Z,89.97
2019-04-29T05:44:47.530Z,89.76
2019-04-29T05:45:47.886Z,90.28
2019-04-29T05:46:47.508Z,90.28
2019-04-29T05:47:47.486Z,90.07
2019-04-29T05:48:47.476Z,89.97
2019-04-29T05:49:47.508Z,90.17
2019-04-29T05:50:51.793Z,90.28
2019-04-29T05:51:47.447Z,89.87
2019-04-29T05:52:49.787Z,90.42
2019-04-29T05:53:54.505Z,90.73
2019-04-29T05:54:48.403Z,90.58
2019-04-29T05:55:47.408Z,90.37
2019-04-29T05:56:47.386Z,90.69
2019-04-29T05:57:47.385Z,90.89
2019-04-29T05:58:47.362Z,90.28
2019-04-29T05:59:47.748Z,90.69
2019-04-29T06:00:47.346Z,90.58
2019-04-29T06:01:48.910Z,90.52
2019-04-29T06:02:47.324Z,90.69
2019-04-29T06:03:47.306Z,90.62
2019-04-29T06:04:48.084Z,90.62
2019-04-29T06:05:47.284Z,90.42
2019-04-29T06:06:47.272Z,90.93
2019-04-29T06:07:47.264Z,91.14
2019-04-29T06:08:47.262Z,91.24
2019-04-29T06:09:47.246Z,91.14
2019-04-29T06:10:47.230Z,91.24
2019-04-29T06:11:47.221Z,91.14
2019-04-29T06:12:47.199Z,90.93
2019-04-29T06:13:47.194Z,91.44
2019-04-29T06:14:47.186Z,91.03
2019-04-29T06:15:47.170Z,91.44
2019-04-29T06:16:47.220Z,91.86
2019-04-29T06:17:47.162Z,91.24
2019-04-29T06:18:47.210Z,91.14
2019-04-29T06:19:47.134Z,91.55
2019-04-29T06:20:47.112Z,91.65
2019-04-29T06:21:54.296Z,91.86
2019-04-29T06:23:28.760Z,92.16
2019-04-29T06:24:28.754Z,92.47
2019-04-29T06:25:28.728Z,92.57
2019-04-29T06:26:28.719Z,92.06
2019-04-29T06:27:28.704Z,92.06
2019-04-29T06:28:28.692Z,92.36
2019-04-29T06:29:28.683Z,92.78
2019-04-29T06:30:28.679Z,92.68
2019-04-29T06:31:28.660Z,92.63
2019-04-29T06:32:28.648Z,92.68
2019-04-29T06:33:30.792Z,92.74
2019-04-29T06:34:28.643Z,92.43
2019-04-29T06:35:28.608Z,93.15
2019-04-29T06:36:28.602Z,93.45
2019-04-29T06:37:28.588Z,93.35
2019-04-29T06:38:28.577Z,93.35
2019-04-29T06:39:28.582Z,91.82
2019-04-29T06:40:30.627Z,92.32
2019-04-29T06:41:29.541Z,91.91
2019-04-29T06:42:28.533Z,92.22
2019-04-29T06:43:30.359Z,91.56
2019-04-29T06:44:28.519Z,92.12
2019-04-29T06:45:28.507Z,91.97
2019-04-29T06:46:28.490Z,91.56
2019-04-29T06:47:28.478Z,91.77
2019-04-29T06:48:28.468Z,91.16
2019-04-29T06:49:28.458Z,91.36
2019-04-29T06:50:28.443Z,91.36
2019-04-29T06:51:28.438Z,91.16
2019-04-29T06:52:28.419Z,91.05
2019-04-29T06:53:28.423Z,91.20
2019-04-29T06:54:28.401Z,92.83
2019-04-29T06:55:28.392Z,93.00
2019-04-29T06:56:28.377Z,92.32
2019-04-29T06:57:28.378Z,92.18
2019-04-29T06:58:28.351Z,92.79
2019-04-29T06:59:28.352Z,91.67
2019-04-29T07:00:28.329Z,91.36
2019-04-29T07:01:28.322Z,91.56
2019-04-29T07:02:28.323Z,91.26
2019-04-29T07:03:28.317Z,91.40
2019-04-29T07:04:30.618Z,91.82
2019-04-29T07:05:29.282Z,91.82
2019-04-29T07:06:28.260Z,91.71
2019-04-29T07:07:28.263Z,92.22
2019-04-29T07:08:28.247Z,92.32
2019-04-29T07:09:28.243Z,92.32
2019-04-29T07:10:28.222Z,92.94
2019-04-29T07:11:31.873Z,92.53
2019-04-29T07:12:29.209Z,92.28
2019-04-29T07:13:28.230Z,92.18
2019-04-29T07:14:32.456Z,92.22
2019-04-29T07:15:28.161Z,91.87
2019-04-29T07:16:31.883Z,91.77
2019-04-29T07:17:28.162Z,91.97
2019-04-29T07:18:28.136Z,91.77
2019-04-29T07:19:28.360Z,91.97
2019-04-29T07:20:28.118Z,92.28
2019-04-29T07:21:28.095Z,91.77
2019-04-29T07:22:31.039Z,92.28
2019-04-29T07:23:28.073Z,91.77
2019-04-29T07:24:28.063Z,92.83
2019-04-29T07:25:28.750Z,92.28
2019-04-29T07:26:28.044Z,91.97
2019-04-29T07:27:28.032Z,92.79
2019-04-29T07:28:28.022Z,91.87
2019-04-29T07:29:30.787Z,92.38
2019-04-29T07:30:29.361Z,91.77
2019-04-29T07:31:32.737Z,92.03
2019-04-29T07:32:32.067Z,91.63
2019-04-29T07:33:27.961Z,91.97
2019-04-29T07:34:28.996Z,91.77
2019-04-29T07:35:28.942Z,91.87
2019-04-29T07:36:27.940Z,91.56
2019-04-29T07:37:29.749Z,91.77
2019-04-29T07:38:40.767Z,91.36
2019-04-29T07:39:31.776Z,91.26
2019-04-29T07:40:27.896Z,91.97
2019-04-29T07:41:27.893Z,91.56
2019-04-29T07:42:32.319Z,91.87
2019-04-29T07:43:28.859Z,91.87
2019-04-29T07:44:42.692Z,92.18
2019-04-29T07:45:29.229Z,92.18
2019-04-29T07:46:27.872Z,92.08
2019-04-29T07:47:29.490Z,91.67
2019-04-29T07:48:36.844Z,91.56
2019-04-29T07:50:10.576Z,91.93
2019-04-29T07:51:17.589Z,91.77
2019-04-29T07:52:59.275Z,91.26
2019-04-29T07:53:59.236Z,91.05
2019-04-29T07:55:33.755Z,91.26
2019-04-29T07:56:42.341Z,91.26
2019-04-29T07:58:16.414Z,91.36
2019-04-29T07:59:16.374Z,91.77
2019-04-29T08:00:16.361Z,92.18
2019-04-29T08:01:19.725Z,91.46
2019-04-29T08:02:17.350Z,91.46
2019-04-29T08:03:16.335Z,91.87
2019-04-29T08:04:16.325Z,91.77
2019-04-29T08:05:16.314Z,91.83
2019-04-29T08:06:16.315Z,91.42
2019-04-29T08:07:16.295Z,90.84
2019-04-29T08:08:23.453Z,91.56
2019-04-29T08:09:58.049Z,91.67
2019-04-29T08:10:57.921Z,91.93
2019-04-29T08:12:39.581Z,91.77
2019-04-29T08:13:39.579Z,91.77
2019-04-29T08:15:21.231Z,92.08
2019-04-29T08:16:21.208Z,92.18
2019-04-29T08:18:06.591Z,92.18
2019-04-29T08:19:05.005Z,92.08
2019-04-29T08:20:05.372Z,92.28
2019-04-29T08:21:02.838Z,91.97
2019-04-29T08:22:02.831Z,91.67
2019-04-29T08:23:04.118Z,90.64
2019-04-29T08:24:02.816Z,91.56
2019-04-29T08:25:02.794Z,91.16
2019-04-29T08:26:04.478Z,90.75
2019-04-29T08:27:02.793Z,91.73
2019-04-29T08:28:02.771Z,91.52
2019-04-29T08:29:02.762Z,90.44
2019-04-29T08:30:06.742Z,90.54
2019-04-29T08:31:03.730Z,90.54
2019-04-29T08:32:02.770Z,90.84
2019-04-29T08:33:02.714Z,90.44
2019-04-29T08:34:02.694Z,90.95
2019-04-29T08:35:03.368Z,90.44
2019-04-29T08:36:02.677Z,91.30
2019-04-29T08:37:02.671Z,91.16
2019-04-29T08:38:02.655Z,91.26
2019-04-29T08:39:08.774Z,91.77
2019-04-29T08:40:15.550Z,90.13
2019-04-29T08:41:03.695Z,90.23
2019-04-29T08:42:03.862Z,90.13
2019-04-29T08:43:02.625Z,89.62
2019-04-29T08:44:15.898Z,89.92
2019-04-29T08:45:03.648Z,90.30
2019-04-29T08:46:02.711Z,90.19
2019-04-29T08:47:02.571Z,89.78
2019-04-29T08:48:02.563Z,89.47
2019-04-29T08:49:06.120Z,88.96
2019-04-29T08:50:03.531Z,89.58
2019-04-29T08:51:02.539Z,89.89
2019-04-29T08:52:02.506Z,88.76
2019-04-29T08:53:02.498Z,88.76
2019-04-29T08:54:02.523Z,88.56
2019-04-29T08:55:02.474Z,87.94
2019-04-29T08:56:05.538Z,88.39
2019-04-29T08:57:04.407Z,87.98
2019-04-29T08:58:02.459Z,88.59
2019-04-29T08:59:02.441Z,88.90
2019-04-29T09:00:02.431Z,89.83
2019-04-29T09:01:02.413Z,89.72
2019-04-29T09:02:05.308Z,89.83
2019-04-29T09:03:03.442Z,88.90
2019-04-29T09:04:02.370Z,88.70
2019-04-29T09:05:02.365Z,88.45
2019-04-29T09:06:05.489Z,88.14
2019-04-29T09:07:12.450Z,87.53
2019-04-29T09:08:03.332Z,87.70
2019-04-29T09:09:04.967Z,87.32
2019-04-29T09:10:03.695Z,87.22
2019-04-29T09:11:02.302Z,87.18
2019-04-29T09:12:02.285Z,87.38
2019-04-29T09:13:02.279Z,87.29
2019-04-29T09:14:02.255Z,87.29
2019-04-29T09:15:02.258Z,86.77
2019-04-29T09:16:02.245Z,86.98
2019-04-29T09:17:04.810Z,86.67
2019-04-29T09:18:03.233Z,86.88
2019-04-29T09:19:02.222Z,87.08
2019-04-29T09:20:02.199Z,87.53
2019-04-29T09:21:02.189Z,87.43
2019-04-29T09:22:02.189Z,87.63
2019-04-29T09:23:02.172Z,87.43
2019-04-29T09:24:02.160Z,87.38
2019-04-29T09:25:02.153Z,87.32
2019-04-29T09:26:03.218Z,87.90
2019-04-29T09:27:05.047Z,87.49
2019-04-29T09:28:03.129Z,87.29
2019-04-29T09:29:03.957Z,86.88
2019-04-29T09:30:02.158Z,86.98
2019-04-29T09:31:02.096Z,86.61
2019-04-29T09:32:02.072Z,87.22
2019-04-29T09:33:02.072Z,87.84
2019-04-29T09:34:06.761Z,87.32
2019-04-29T09:35:03.041Z,87.77
2019-04-29T09:36:02.032Z,87.98
2019-04-29T09:37:02.010Z,87.84
2019-04-29T09:38:02.008Z,88.24
2019-04-29T09:39:01.994Z,88.24
2019-04-29T09:40:01.996Z,87.73
2019-04-29T09:41:01.974Z,87.90
2019-04-29T09:42:03.486Z,87.79
2019-04-29T09:43:14.560Z,87.18
2019-04-29T09:44:04.044Z,87.38
2019-04-29T09:45:01.932Z,87.55
2019-04-29T09:46:01.975Z,87.24
2019-04-29T09:47:04.190Z,86.94
2019-04-29T09:48:02.899Z,86.22
2019-04-29T09:49:01.888Z,85.91
2019-04-29T09:50:01.873Z,85.85
2019-04-29T09:51:01.892Z,86.12
2019-04-29T09:52:01.850Z,86.94
2019-04-29T09:53:01.866Z,86.88
2019-04-29T09:54:01.837Z,87.49
2019-04-29T09:55:03.961Z,86.88
2019-04-29T09:56:01.810Z,87.08
2019-04-29T09:57:01.808Z,87.59
2019-04-29T09:58:01.840Z,87.08
2019-04-29T09:59:01.783Z,86.88
2019-04-29T10:00:05.358Z,86.61
2019-04-29T10:01:02.755Z,87.43
2019-04-29T10:02:01.765Z,87.12
2019-04-29T10:03:02.947Z,87.53
2019-04-29T10:04:01.724Z,88.14
2019-04-29T10:05:01.730Z,87.73
2019-04-29T10:06:01.731Z,87.29
2019-04-29T10:07:01.685Z,87.08
2019-04-29T10:08:01.684Z,87.70
2019-04-29T10:09:01.662Z,87.59
2019-04-29T10:10:02.402Z,87.49
2019-04-29T10:11:02.651Z,87.08
2019-04-29T10:12:01.641Z,86.57
2019-04-29T10:13:01.632Z,87.59
2019-04-29T10:14:01.635Z,87.08
2019-04-29T10:15:01.605Z,87.79
2019-04-29T10:16:02.142Z,87.45
2019-04-29T10:17:01.577Z,86.73
2019-04-29T10:18:01.589Z,86.43
2019-04-29T10:19:05.319Z,86.94
2019-04-29T10:20:01.551Z,86.63
2019-04-29T10:21:01.533Z,87.24
2019-04-29T10:22:01.528Z,86.83
2019-04-29T10:23:01.526Z,86.94
2019-04-29T10:24:01.514Z,86.73
2019-04-29T10:25:01.502Z,86.22
2019-04-29T10:26:01.640Z,85.91
2019-04-29T10:27:01.472Z,86.02
2019-04-29T10:28:01.469Z,85.91
2019-04-29T10:29:01.460Z,86.02
2019-04-29T10:30:01.446Z,85.91
2019-04-29T10:31:01.429Z,85.30
2019-04-29T10:32:02.481Z,85.57
2019-04-29T10:33:02.419Z,85.97
2019-04-29T10:34:01.407Z,85.40
2019-04-29T10:35:03.636Z,85.77
2019-04-29T10:36:02.382Z,85.67
2019-04-29T10:37:01.384Z,84.89
2019-04-29T10:38:02.816Z,84.99
2019-04-29T10:39:01.350Z,85.40
2019-04-29T10:40:10.984Z,85.67
2019-04-29T10:41:02.419Z,85.97
2019-04-29T10:42:01.319Z,85.67
2019-04-29T10:43:01.292Z,85.57
2019-04-29T10:44:01.293Z,85.26
2019-04-29T10:45:01.356Z,85.16
2019-04-29T10:46:01.264Z,85.16
2019-04-29T10:47:01.258Z,84.95
2019-04-29T10:48:01.244Z,84.75
2019-04-29T10:49:03.561Z,84.55
2019-04-29T10:50:01.250Z,84.75
2019-04-29T10:51:01.232Z,85.36
2019-04-29T10:52:02.824Z,84.65
2019-04-29T10:53:01.199Z,85.32
2019-04-29T10:54:01.191Z,85.12
2019-04-29T10:55:01.203Z,85.02
2019-04-29T10:56:05.540Z,84.81
2019-04-29T10:57:02.142Z,85.42
2019-04-29T10:58:01.138Z,84.61
2019-04-29T10:59:04.501Z,85.12
2019-04-29T11:00:02.243Z,84.09
2019-04-29T11:01:01.206Z,83.54
2019-04-29T11:02:05.101Z,83.69
2019-04-29T11:03:02.089Z,83.89
2019-04-29T11:04:02.771Z,83.69
2019-04-29T11:05:02.675Z,85.02
2019-04-29T11:06:02.119Z,85.26
2019-04-29T11:07:13.541Z,85.06
2019-04-29T11:08:02.488Z,85.06
2019-04-29T11:09:01.013Z,84.50
2019-04-29T11:10:01.004Z,84.50
2019-04-29T11:11:02.656Z,84.71
2019-04-29T11:12:00.994Z,85.22
2019-04-29T11:13:00.978Z,85.47
2019-04-29T11:14:01.656Z,85.22
2019-04-29T11:15:01.765Z,84.91
2019-04-29T11:16:00.934Z,85.12
2019-04-29T11:17:00.930Z,85.12
2019-04-29T11:18:03.554Z,84.81
2019-04-29T11:19:05.089Z,85.12
2019-04-29T11:20:00.916Z,85.12
2019-04-29T11:21:00.878Z,84.71
2019-04-29T11:22:02.183Z,85.22
2019-04-29T11:23:00.857Z,85.32
2019-04-29T11:24:00.861Z,85.12
2019-04-29T11:25:00.858Z,84.61
2019-04-29T11:26:00.830Z,84.57
2019-04-29T11:27:11.618Z,84.57
2019-04-29T11:28:01.824Z,84.77
2019-04-29T11:29:00.799Z,84.88
2019-04-29T11:30:02.999Z,83.65
2019-04-29T11:31:00.769Z,83.85
2019-04-29T11:32:00.766Z,84.83
2019-04-29T11:33:04.707Z,83.81
2019-04-29T11:34:01.740Z,83.92
2019-04-29T11:35:00.728Z,83.20
2019-04-29T11:36:03.936Z,83.10
2019-04-29T11:37:01.713Z,83.40
2019-04-29T11:38:00.694Z,83.44
2019-04-29T11:39:00.686Z,83.30
2019-04-29T11:40:00.675Z,83.00
2019-04-29T11:41:00.666Z,83.81
2019-04-29T11:42:01.595Z,84.01
2019-04-29T11:43:00.637Z,84.33
2019-04-29T11:44:00.635Z,83.51
2019-04-29T11:45:02.150Z,84.77
2019-04-29T11:46:00.602Z,84.63
2019-04-29T11:47:00.595Z,83.51
2019-04-29T11:48:00.589Z,82.59
2019-04-29T11:49:00.574Z,83.20
2019-04-29T11:50:00.562Z,83.00
2019-04-29T11:51:00.641Z,83.00
2019-04-29T11:52:10.045Z,83.51
2019-04-29T11:53:01.526Z,83.10
2019-04-29T11:54:00.515Z,82.69
2019-04-29T11:55:00.507Z,83.10
2019-04-29T11:56:00.505Z,82.96
2019-04-29T11:57:00.517Z,83.61
2019-04-29T11:58:00.521Z,83.47
2019-04-29T11:59:00.545Z,83.67
2019-04-29T12:00:00.450Z,83.26
2019-04-29T12:01:03.932Z,82.55
2019-04-29T12:02:01.476Z,83.26
2019-04-29T12:03:00.415Z,82.51
2019-04-29T12:04:00.407Z,82.61
2019-04-29T12:05:04.088Z,82.41
2019-04-29T12:06:01.423Z,81.56
2019-04-29T12:07:00.385Z,81.35
2019-04-29T12:08:03.853Z,81.56
2019-04-29T12:09:01.366Z,81.86
2019-04-29T12:10:02.273Z,80.84
2019-04-29T12:11:07.131Z,80.94
2019-04-29T12:12:01.318Z,81.01
2019-04-29T12:13:00.315Z,80.91
2019-04-29T12:14:02.996Z,80.29
2019-04-29T12:15:00.325Z,80.19
2019-04-29T12:16:00.294Z,80.26
2019-04-29T12:17:00.265Z,80.26
2019-04-29T12:18:00.249Z,79.85
2019-04-29T12:19:00.250Z,79.89
2019-04-29T12:20:00.239Z,80.05
2019-04-29T12:21:00.216Z,80.16
2019-04-29T12:22:00.351Z,79.85
2019-04-29T12:23:00.195Z,79.95
2019-04-29T12:24:00.196Z,80.05
2019-04-29T12:25:00.172Z,79.75
2019-04-29T12:26:03.220Z,79.95
2019-04-29T12:27:00.148Z,79.95
2019-04-29T12:28:02.003Z,80.52
2019-04-29T12:29:00.138Z,79.95
2019-04-29T12:30:00.148Z,79.95
2019-04-29T12:31:00.098Z,79.75
2019-04-29T12:32:00.103Z,80.02
2019-04-29T12:33:01.405Z,79.91
2019-04-29T12:34:00.073Z,79.50
2019-04-29T12:35:00.059Z,79.91
2019-04-29T12:36:03.281Z,79.91
2019-04-29T12:37:01.052Z,79.61
2019-04-29T12:38:00.698Z,79.71
2019-04-29T12:39:01.101Z,79.41
2019-04-29T12:40:00.008Z,79.91
2019-04-29T12:41:00.004Z,79.81
2019-04-29T12:42:00.612Z,79.27
2019-04-29T12:42:59.973Z,79.37
2019-04-29T12:44:00.035Z,79.27
2019-04-29T12:44:59.950Z,79.37
2019-04-29T12:45:59.937Z,79.16
2019-04-29T12:46:59.963Z,79.57
2019-04-29T12:47:59.993Z,79.37
2019-04-29T12:49:03.502Z,78.92
2019-04-29T12:50:00.905Z,79.33
2019-04-29T12:50:59.887Z,78.92
2019-04-29T12:51:59.899Z,78.41
2019-04-29T12:52:59.871Z,79.02
2019-04-29T12:53:59.855Z,78.72
2019-04-29T12:55:07.078Z,78.21
2019-04-29T12:56:00.825Z,78.89
2019-04-29T12:56:59.822Z,78.28
2019-04-29T12:57:59.819Z,78.17
2019-04-29T12:59:01.702Z,78.89